15:06
Airports
History
Links
Donate
Help keep this website running!
PayPal
Bitcoin
This page is community maintained. The information is intended for PC simulator navigation or reference.
Always use approved charts for navigation.
U61
Twin BridgesUpdated 28-Jul-2013
Twin Bridges (U61)
Mackay, Idaho, United States (83251)
4
Lat/Lng:43° 56' 37.3" N / 114° 6' 36.9" W
43.943694 / -114.11025
Elevation:6893'ft / 2101mMSL
Declination:E017°
ID / ICAO:U61
FAA:U61
Runways:1
Longest:03-21
Grass 1,352m / 4,435ft
(Edited 2013-07-28) [ Sign in to Edit ]
Nearby Weather14:50 GMT 2017-11-23
Nearby weather at KSUN, Friedman Memorial located 31.8 nautical miles from U61
Altimeter: 30.21
Visibility: 10.0 statute miles
Wind: 10 knots (from 300°)
Temp: 4°c / 39°f
Humidity: 86.8%

METAR: KSUN 231450Z 30010KT 10SM SCT060 SCT075 BKN095 04/02 A3021

(Powered by phpweather)
Nearby VORs <50NM
Nearby NDBs
Runway 03 / 21
Dimensions:1351.8 x 30.5m 4435' x 100'ft
Surface:Grass
Runway 03 [A]Runway 21 [B]
Heading:029°MH  046°TH209°MH   226°TH
Lat:
Lng:
43° 56' 32.71"N
114° 6' 57.49"W
43° 57' 2.68"N
114° 6' 12.85"W
User Notes and Comments
43° 56' 37.3" N / 114° 6' 36.9" W
Distance To
Airport ID:
Nearby Airports
4 Star s Ranch 4.2 NM
ID56 NE 51°
4 Copper Basin 17.0 NM
0U2 SE 125°
(U) Mackay 25.4 NM
U62 E 95°
4 Antelope Valley 31.3 NM
U92 SE 126°
(C) Friedman Memorial 31.8 NM
KSUN ( WX ) SSW 196°
4 Flat Top Airstrip 32.4 NM
81U SSE 163°
4 Smiley Creek 34.2 NM
U87 W 266°
VFR Chart
Flight Planning at SkyVector.com